Weather History for KHSB - February, 2014

Change the Weather History Date:

Tuesday, February 11, 2014

  Actual Average (KMWA) Record (KMWA)
Temperature  
Mean Temperature 12 °F -  
Max Temperature 21 °F 43 °F 140 °F (2013)
Min Temperature 2 °F 22 °F -8 °F (1982)
Degree Days  
Heating Degree Days 54    
Moisture  
Dew Point 2 °F    
Average Humidity 67    
Maximum Humidity 78    
Minimum Humidity 56    
Precipitation  
Precipitation 0.00 in - - ()
Sea Level Pressure  
Sea Level Pressure 30.46 in    
Wind  
Wind Speed 5 mph (NNE)    
Max Wind Speed 8 mph    
Max Gust Speed -    
Visibility 10 miles    
Events      
Averages and records for this station are not official NWS values.
T = Trace of Precipitation, MM = Missing Value Source: NWS Daily Summary

Daily Weather History Graph

Daily Weather History Graph

Search for Another Location

Airport or City:

Trip Planner

Search our weather history database for the weather conditions in past years. The results will help you decide how hot, cold, wet, or windy it might be!

Date:

Astronomy

Feb. 11, 2014 Rise Set
Actual Time 6:48 AM CST 5:28 PM CST
Civil Twilight 6:21 AM CST 5:56 PM CST
Nautical Twilight 5:50 AM CST 6:26 PM CST
Astronomical Twilight 5:19 AM CST 6:57 PM CST
Moon 2:50 PM CST (2/11) 4:23 AM CST (2/11)
Length of Visible Light 11h 34m
Length of Day
10h 40m
Waxing Gibbous, 91% of the Moon is Illuminated
Feb 11
Waxing Gibbous
Feb 14
Full
Feb 22
Last Quarter
Mar 1
New
Mar 8
First Quarter

Hourly Weather History & Observations

Time (CST) Temp. Windchill Dew Point Humidity Pressure Visibility Wind Dir Wind Speed Gust Speed Precip Events Conditions
12:15 AM 7.0 °F -4.5 °F -2.4 °F 66% 30.48 in 10.0 mi North 6.9 mph - N/A   Clear
12:35 AM 6.6 °F -2.2 °F -2.7 °F 66% 30.49 in 10.0 mi North 4.6 mph - N/A   Clear
12:55 AM 6.3 °F -2.6 °F -2.2 °F 68% 30.49 in 10.0 mi North 4.6 mph - N/A   Clear
1:15 AM 5.9 °F -4.5 °F -2.6 °F 68% 30.49 in 10.0 mi NNE 5.8 mph - N/A   Clear
1:35 AM 5.5 °F -5.0 °F -2.6 °F 69% 30.50 in 10.0 mi North 5.8 mph - N/A   Clear
1:55 AM 5.0 °F -5.6 °F -3.1 °F 69% 30.49 in 10.0 mi NNE 5.8 mph - N/A   Clear
2:15 AM 4.8 °F -5.8 °F -2.9 °F 70% 30.48 in 10.0 mi North 5.8 mph - N/A   Clear
2:35 AM 4.6 °F -7.4 °F -2.7 °F 72% 30.47 in 10.0 mi North 6.9 mph - N/A   Clear
2:55 AM 4.5 °F -4.7 °F -3.1 °F 71% 30.48 in 10.0 mi North 4.6 mph - N/A   Clear
3:15 AM 4.1 °F -3.2 °F -3.3 °F 71% 30.48 in 10.0 mi North 3.5 mph - N/A   Clear
3:35 AM 3.9 °F -5.3 °F -3.5 °F 71% 30.48 in 10.0 mi North 4.6 mph - N/A   Clear
3:55 AM 3.7 °F -7.1 °F -3.5 °F 72% 30.49 in 10.0 mi North 5.8 mph - N/A   Clear
4:15 AM 3.4 °F -7.5 °F -3.8 °F 72% 30.49 in 10.0 mi North 5.8 mph - N/A   Clear
4:35 AM 3.2 °F -4.2 °F -3.8 °F 73% 30.50 in 10.0 mi North 3.5 mph - N/A   Clear
4:55 AM 3.0 °F -6.4 °F -4.0 °F 73% 30.50 in 10.0 mi North 4.6 mph - N/A   Clear
5:15 AM 2.8 °F -4.6 °F -4.0 °F 73% 30.50 in 10.0 mi North 3.5 mph - N/A   Clear
5:35 AM 2.3 °F -5.2 °F -4.0 °F 75% 30.50 in 10.0 mi North 3.5 mph - N/A   Clear
5:55 AM 2.3 °F -5.2 °F -4.0 °F 75% 30.50 in 10.0 mi North 3.5 mph - N/A   Clear
6:15 AM 2.3 °F -7.2 °F -4.0 °F 75% 30.51 in 10.0 mi North 4.6 mph - N/A   Clear
6:35 AM 2.3 °F -5.2 °F -4.2 °F 74% 30.51 in 10.0 mi North 3.5 mph - N/A   Clear
6:55 AM 2.3 °F -7.2 °F -4.4 °F 74% 30.52 in 10.0 mi North 4.6 mph - N/A   Clear
7:15 AM 2.5 °F - -4.4 °F 73% 30.52 in 10.0 mi Calm Calm - N/A   Clear
7:35 AM 2.3 °F -7.2 °F -4.7 °F 72% 30.53 in 10.0 mi North 4.6 mph - N/A   Clear
7:55 AM 3.0 °F -6.4 °F -4.2 °F 72% 30.53 in 10.0 mi North 4.6 mph - N/A   Clear
8:15 AM 4.3 °F -6.5 °F -3.5 °F 70% 30.54 in 10.0 mi North 5.8 mph - N/A   Clear
8:35 AM 5.0 °F -5.6 °F -3.3 °F 69% 30.54 in 10.0 mi North 5.8 mph - N/A   Clear
8:55 AM 6.8 °F -4.8 °F -1.5 °F 69% 30.53 in 10.0 mi NNE 6.9 mph - N/A   Clear
9:15 AM 7.5 °F -3.9 °F -2.2 °F 65% 30.53 in 10.0 mi NNE 6.9 mph - N/A   Clear
9:35 AM 8.6 °F -1.3 °F -0.8 °F 66% 30.54 in 10.0 mi NNE 5.8 mph - N/A   Clear
9:55 AM 9.5 °F 1.2 °F -0.6 °F 64% 30.53 in 10.0 mi NE 4.6 mph - N/A   Clear
10:15 AM 10.4 °F 4.0 °F 0.3 °F 64% 30.54 in 10.0 mi NNE 3.5 mph - N/A   Clear
10:35 AM 11.1 °F 3.1 °F -0.0 °F 61% 30.54 in 10.0 mi NNE 4.6 mph - N/A   Clear
10:55 AM 12.6 °F 4.8 °F 1.9 °F 63% 30.53 in 10.0 mi North 4.6 mph - N/A   Clear
11:15 AM 13.6 °F 6.0 °F 2.3 °F 61% 30.53 in 10.0 mi NNE 4.6 mph - N/A   Clear
11:35 AM 14.5 °F 7.1 °F 2.8 °F 60% 30.53 in 10.0 mi North 4.6 mph - N/A   Clear
11:55 AM 15.3 °F 6.6 °F 3.0 °F 58% 30.52 in 10.0 mi NNE 5.8 mph - N/A   Clear
12:15 PM 16.0 °F 7.4 °F 5.4 °F 63% 30.50 in 10.0 mi North 5.8 mph - N/A   Clear
12:35 PM 16.0 °F 10.4 °F 4.6 °F 61% 30.50 in 10.0 mi NE 3.5 mph - N/A   Clear
12:55 PM 17.1 °F 7.6 °F 5.4 °F 60% 30.48 in 10.0 mi NNE 6.9 mph - N/A   Clear
1:15 PM 18.3 °F 11.5 °F 6.3 °F 59% 30.47 in 10.0 mi ENE 4.6 mph - N/A   Clear
1:35 PM 18.3 °F 11.5 °F 5.0 °F 56% 30.46 in 10.0 mi NE 4.6 mph - N/A   Clear
1:55 PM 18.9 °F 10.8 °F 6.4 °F 58% 30.46 in 10.0 mi NE 5.8 mph - N/A   Clear
2:15 PM 19.2 °F 10.2 °F 6.4 °F 58% 30.45 in 10.0 mi NE 6.9 mph - N/A   Clear
3:15 PM 20.3 °F 13.8 °F 7.3 °F 57% 30.43 in 10.0 mi ENE 4.6 mph - N/A   Clear
3:35 PM 21.0 °F 12.4 °F 8.1 °F 57% 30.43 in 10.0 mi ENE 6.9 mph - N/A   Clear
3:55 PM 20.5 °F 14.0 °F 7.0 °F 56% 30.43 in 10.0 mi ENE 4.6 mph - N/A   Clear
4:15 PM 20.3 °F 12.5 °F 7.9 °F 59% 30.43 in 10.0 mi NE 5.8 mph - N/A   Clear
4:35 PM 20.1 °F 11.3 °F 8.2 °F 60% 30.42 in 10.0 mi North 6.9 mph - N/A   Clear
4:55 PM 19.2 °F 9.3 °F 7.5 °F 60% 30.42 in 10.0 mi NNE 8.1 mph - N/A   Clear
5:15 PM 18.5 °F 9.3 °F 7.5 °F 62% 30.42 in 10.0 mi NNE 6.9 mph - N/A   Clear
5:35 PM 17.8 °F 8.5 °F 7.3 °F 64% 30.41 in 10.0 mi NNE 6.9 mph - N/A   Clear
5:55 PM 17.2 °F 7.8 °F 7.3 °F 65% 30.40 in 10.0 mi NNE 6.9 mph - N/A   Clear
6:15 PM 16.7 °F 7.2 °F 7.5 °F 67% 30.40 in 10.0 mi NNE 6.9 mph - N/A   Clear
6:35 PM 16.3 °F 7.8 °F 7.2 °F 67% 30.40 in 10.0 mi NNE 5.8 mph - N/A   Clear
6:55 PM 16.2 °F 7.6 °F 6.8 °F 67% 30.41 in 10.0 mi North 5.8 mph - N/A   Clear
7:15 PM 15.8 °F 5.1 °F 6.8 °F 68% 30.39 in 10.0 mi NNE 8.1 mph - N/A   Clear
7:35 PM 15.6 °F 10.0 °F 5.9 °F 66% 30.40 in 10.0 mi NE 3.5 mph - N/A   Clear
7:55 PM 15.1 °F 9.4 °F 5.9 °F 67% 30.40 in 10.0 mi NE 3.5 mph - N/A   Clear
8:15 PM 14.9 °F 7.5 °F 5.9 °F 68% 30.39 in 10.0 mi NNE 4.6 mph - N/A   Clear
8:35 PM 15.3 °F 7.9 °F 5.5 °F 65% 30.38 in 10.0 mi NNE 4.6 mph - N/A   Clear
8:55 PM 14.7 °F 7.3 °F 5.7 °F 68% 30.40 in 10.0 mi NNE 4.6 mph - N/A   Clear
9:15 PM 14.4 °F 6.9 °F 5.7 °F 69% 30.39 in 10.0 mi NNE 4.6 mph - N/A   Clear
9:35 PM 14.0 °F 5.1 °F 5.4 °F 69% 30.40 in 10.0 mi NNE 5.8 mph - N/A   Clear
9:55 PM 14.0 °F 8.2 °F 5.5 °F 69% 30.40 in 10.0 mi NNE 3.5 mph - N/A   Clear
10:15 PM 13.1 °F 5.4 °F 5.0 °F 70% 30.39 in 10.0 mi North 4.6 mph - N/A   Clear
10:35 PM 12.9 °F 3.8 °F 5.4 °F 72% 30.39 in 10.0 mi North 5.8 mph - N/A   Clear
10:55 PM 12.6 °F - 5.5 °F 74% 30.39 in 10.0 mi Calm Calm - N/A   Clear
11:15 PM 11.7 °F - 5.5 °F 76% 30.37 in 10.0 mi Calm Calm - N/A   Clear
11:35 PM 11.7 °F - 5.4 °F 76% 30.37 in 10.0 mi Calm Calm - N/A   Clear
11:55 PM 11.3 °F - 5.5 °F 78% 30.37 in 10.0 mi Calm Calm - N/A   Clear